Time;durP1;ratioP1;P1;durP2;ratioP2;P2;SDS_P1;SDS_P2;PMS_P1;PMS_P2;Temp;Humidity;BMP_temperature;BMP_pressure;BME280_temperature;BME280_humidity;BME280_pressure;Samples;Min_cycle;Max_cycle;Signal;HPM_P1;HPM_P2
2022/04/27 00:02:14;;;;;;;12.77;7.47;;;;;;;8.05;65.46;102109.41;3583239;40;20047;-63
2022/04/27 00:04:40;;;;;;;13.35;7.25;;;;;;;8.07;66.50;102120.09;3577313;39;20048;-61
2022/04/27 00:07:07;;;;;;;11.05;7.55;;;;;;;7.93;66.12;102109.81;3584042;40;20206;-63
2022/04/27 00:09:33;;;;;;;11.82;8.10;;;;;;;7.93;66.12;102109.81;3585563;40;20046;-61
2022/04/27 00:12:01;;;;;;;10.07;8.05;;;;;;;7.84;66.98;102099.38;3572310;40;20209;-62
2022/04/27 00:14:29;;;;;;;12.48;7.72;;;;;;;7.87;67.17;102107.31;3585796;40;20075;-63
2022/04/27 00:16:56;;;;;;;10.13;7.45;;;;;;;7.84;66.98;102107.41;3581525;40;20060;-63
2022/04/27 00:19:22;;;;;;;9.35;7.85;;;;;;;7.78;67.22;102110.25;3578477;40;20053;-62
2022/04/27 00:21:47;;;;;;;10.73;7.95;;;;;;;7.75;67.40;102107.66;3582982;40;20081;-61
2022/04/27 00:24:13;;;;;;;12.23;8.13;;;;;;;7.70;68.06;102102.44;3582869;40;20060;-63
2022/04/27 00:26:39;;;;;;;11.38;8.10;;;;;;;7.67;67.76;102103.44;3574966;40;20051;-62
2022/04/27 00:29:04;;;;;;;11.30;7.47;;;;;;;7.62;67.32;102093.78;3584029;40;20124;-63
2022/04/27 00:31:31;;;;;;;9.75;7.85;;;;;;;7.53;67.34;102089.56;3586282;40;20052;-63
2022/04/27 00:34:00;;;;;;;11.60;7.88;;;;;;;7.55;67.63;102094.84;3574492;40;21269;-62
2022/04/27 00:36:27;;;;;;;16.38;8.13;;;;;;;7.61;67.25;102118.75;3584743;40;20060;-64
2022/04/27 00:38:53;;;;;;;12.40;7.80;;;;;;;7.56;67.49;102116.22;3582648;40;20051;-63
2022/04/27 00:41:18;;;;;;;12.77;8.38;;;;;;;7.47;67.72;102099.56;3575703;40;20515;-64
2022/04/27 00:43:45;;;;;;;15.68;8.13;;;;;;;7.49;67.48;102109.31;3584578;40;20047;-62
2022/04/27 00:46:11;;;;;;;13.02;8.27;;;;;;;7.52;67.50;102119.91;3586321;40;20058;-63
2022/04/27 00:48:41;;;;;;;13.60;8.23;;;;;;;7.46;67.35;102124.56;3574343;40;20047;-61
2022/04/27 00:51:12;;;;;;;13.13;8.07;;;;;;;7.38;68.54;102117.63;3576073;40;20060;-63
2022/04/27 00:53:40;;;;;;;13.23;7.82;;;;;;;7.38;68.32;102114.94;3584486;40;20109;-63
2022/04/27 00:56:06;;;;;;;15.00;7.78;;;;;;;7.37;68.19;102121.22;3573280;40;21032;-62
2022/04/27 00:58:32;;;;;;;13.90;8.68;;;;;;;7.27;68.78;102116.19;3581989;40;20051;-61
2022/04/27 01:00:57;;;;;;;12.13;8.20;;;;;;;7.28;68.63;102126.81;3579347;40;20090;-62
2022/04/27 01:03:23;;;;;;;12.35;8.30;;;;;;;7.21;69.32;102134.13;3585418;40;20070;-62
2022/04/27 01:05:50;;;;;;;12.18;8.38;;;;;;;7.11;69.17;102135.31;3574667;40;20079;-60
2022/04/27 01:08:20;;;;;;;12.90;8.45;;;;;;;7.03;69.77;102131.94;3584676;40;20048;-62
2022/04/27 01:10:48;;;;;;;11.75;7.68;;;;;;;6.94;70.00;102135.72;3582818;40;20055;-61
2022/04/27 01:13:15;;;;;;;13.52;8.77;;;;;;;6.93;69.46;102130.44;3574734;40;20095;-62
2022/04/27 01:15:41;;;;;;;12.52;8.40;;;;;;;6.94;69.49;102137.53;3583348;40;20062;-61
2022/04/27 01:18:11;;;;;;;12.77;8.73;;;;;;;6.88;69.84;102137.69;3580573;40;20666;-62
2022/04/27 01:20:44;;;;;;;10.70;8.32;;;;;;;6.86;69.72;102145.75;3582174;40;20492;-61
2022/04/27 01:23:15;;;;;;;12.13;8.60;;;;;;;6.74;70.20;102125.53;3577370;40;20783;-63
2022/04/27 01:26:05;;;;;;;11.48;8.35;;;;;;;6.79;70.05;102140.56;3582228;40;20048;-61
2022/04/27 01:28:37;;;;;;;13.00;8.80;;;;;;;6.76;70.25;102138.88;3579283;39;20076;-62
2022/04/27 01:31:08;;;;;;;13.38;9.48;;;;;;;6.64;70.33;102134.72;3577613;40;20571;-63
2022/04/27 01:33:35;;;;;;;14.70;9.15;;;;;;;6.64;70.83;102139.19;3580352;40;20121;-62
2022/04/27 01:36:06;;;;;;;15.50;10.35;;;;;;;6.59;71.11;102147.28;3583910;40;20059;-63
2022/04/27 01:38:40;;;;;;;14.85;10.07;;;;;;;6.56;71.35;102142.03;3581525;40;20059;-61
2022/04/27 01:41:06;;;;;;;13.68;9.32;;;;;;;6.59;71.06;102147.28;3588543;40;20108;-62
2022/04/27 01:43:34;;;;;;;11.70;8.73;;;;;;;6.53;71.75;102139.41;3578984;40;20386;-61
2022/04/27 01:46:00;;;;;;;14.13;10.00;;;;;;;6.05;71.23;102065.75;3577780;40;20635;-62
2022/04/27 01:48:27;;;;;;;15.45;10.32;;;;;;;6.49;71.41;102143.09;3588492;40;20145;-62
2022/04/27 01:50:53;;;;;;;14.10;10.15;;;;;;;6.45;71.53;102146.75;3585182;40;20059;-62
2022/04/27 01:56:06;;;;;;;15.50;10.82;;;;;;;6.46;71.81;102144.03;3585876;40;20055;-65
2022/04/27 01:58:32;;;;;;;17.48;11.20;;;;;;;6.48;71.96;102152.03;3587690;40;20406;-62
2022/04/27 02:00:58;;;;;;;17.92;11.07;;;;;;;6.40;72.12;102140.63;3575622;40;20062;-62
2022/04/27 02:03:24;;;;;;;14.68;10.73;;;;;;;6.46;72.31;102157.38;3588663;40;20390;-63
2022/04/27 02:05:52;;;;;;;14.85;11.20;;;;;;;6.41;72.28;102142.41;3586650;40;20080;-62
2022/04/27 02:08:18;;;;;;;14.13;11.18;;;;;;;6.43;71.92;102152.13;3582393;40;20036;-63
2022/04/27 02:10:45;;;;;;;14.10;10.63;;;;;;;6.45;71.95;102158.31;3586253;40;20101;-61
2022/04/27 02:13:12;;;;;;;16.30;10.45;;;;;;;6.42;72.48;102160.19;3588254;40;20398;-62
2022/04/27 02:15:38;;;;;;;20.35;11.65;;;;;;;6.41;72.04;102158.44;3575161;40;20098;-61
2022/04/27 02:18:05;;;;;;;13.82;11.93;;;;;;;6.32;72.40;102142.63;3579661;40;20405;-62
2022/04/27 02:20:31;;;;;;;18.58;11.55;;;;;;;6.34;72.18;102159.47;3586061;40;20048;-62
2022/04/27 02:22:56;;;;;;;17.02;10.73;;;;;;;6.35;72.21;102164.78;3584694;40;20052;-62
2022/04/27 02:25:23;;;;;;;18.80;11.02;;;;;;;6.33;72.39;102166.59;3580285;40;20106;-61
2022/04/27 02:27:49;;;;;;;22.15;11.07;;;;;;;6.24;72.52;102151.66;3585246;40;20149;-61
2022/04/27 02:30:16;;;;;;;15.30;11.65;;;;;;;6.28;72.35;102166.72;3575954;40;20051;-64
2022/04/27 02:32:45;;;;;;;17.73;11.65;;;;;;;6.24;73.09;102162.34;3577174;40;20345;-64
2022/04/27 02:35:11;;;;;;;16.27;11.95;;;;;;;6.34;72.20;102171.03;3585332;40;20064;-64
2022/04/27 02:37:37;;;;;;;15.65;11.73;;;;;;;6.26;72.48;102160.53;3589265;40;20048;-66
2022/04/27 02:40:05;;;;;;;17.05;11.88;;;;;;;6.22;72.72;102161.50;3575762;40;20149;-64
2022/04/27 02:42:30;;;;;;;17.13;12.52;;;;;;;6.32;73.11;102180.00;3585155;40;20097;-64
2022/04/27 02:44:57;;;;;;;16.15;12.52;;;;;;;6.27;72.82;102175.63;3581864;40;20056;-64
2022/04/27 02:47:22;;;;;;;14.38;11.77;;;;;;;6.18;72.60;102166.94;3576407;40;20318;-64
2022/04/27 02:52:33;;;;;;;15.63;12.45;;;;;;;6.29;73.30;102186.28;3585671;40;20098;-64
2022/04/27 02:54:58;;;;;;;16.52;13.05;;;;;;;6.26;73.28;102184.56;3575656;40;20796;-64
2022/04/27 02:57:24;;;;;;;15.77;12.05;;;;;;;6.21;73.18;102181.09;3584553;40;20078;-63
2022/04/27 02:59:50;;;;;;;15.88;12.32;;;;;;;6.24;73.51;102183.69;3580990;40;20051;-64
2022/04/27 03:02:16;;;;;;;14.45;12.45;;;;;;;6.26;73.20;102181.00;3573646;40;20072;-64
2022/04/27 03:04:42;;;;;;;18.85;12.52;;;;;;;6.07;72.86;102148.50;3583487;40;20039;-64
2022/04/27 03:07:07;;;;;;;17.73;12.50;;;;;;;6.21;73.25;102166.88;3582555;40;20579;-64
2022/04/27 03:09:34;;;;;;;17.00;12.98;;;;;;;6.27;73.20;102188.09;3585282;40;20096;-64
2022/04/27 03:12:00;;;;;;;17.85;13.05;;;;;;;6.20;73.33;102175.81;3577362;39;20097;-64
2022/04/27 03:14:28;;;;;;;19.23;12.75;;;;;;;6.17;73.28;102166.06;3586181;40;20048;-65
2022/04/27 03:16:55;;;;;;;16.67;13.13;;;;;;;6.21;73.15;102173.09;3572769;40;20646;-64
2022/04/27 03:19:22;;;;;;;19.95;13.43;;;;;;;6.13;73.00;102176.84;3584208;40;20108;-64
2022/04/27 03:21:47;;;;;;;20.33;13.65;;;;;;;6.15;73.04;102193.69;3582346;40;20129;-65
2022/04/27 03:24:14;;;;;;;22.75;14.07;;;;;;;6.08;73.04;102187.63;3584156;40;20079;-64
2022/04/27 03:26:40;;;;;;;17.52;13.25;;;;;;;5.91;73.60;102173.72;3575941;40;20417;-65
2022/04/27 03:29:06;;;;;;;19.30;14.27;;;;;;;5.99;74.34;102183.38;3581739;40;20064;-65
2022/04/27 03:31:35;;;;;;;20.23;13.48;;;;;;;5.99;73.98;102193.16;3586666;40;20094;-64
2022/04/27 03:34:00;;;;;;;17.20;13.77;;;;;;;5.98;73.86;102186.06;3573334;40;20104;-65
2022/04/27 03:36:26;;;;;;;17.15;13.70;;;;;;;5.96;74.17;102187.88;3585379;40;20293;-65
2022/04/27 03:38:52;;;;;;;18.40;13.75;;;;;;;5.94;73.46;102187.91;3581126;40;20048;-64
2022/04/27 03:41:22;;;;;;;17.98;13.55;;;;;;;5.95;73.37;102188.78;3578594;40;20072;-65
2022/04/27 03:43:50;;;;;;;23.08;13.90;;;;;;;5.93;73.66;102201.28;3583745;40;20040;-65
2022/04/27 03:46:16;;;;;;;23.08;14.70;;;;;;;5.84;74.01;102196.13;3584411;40;20362;-63
2022/04/27 03:48:42;;;;;;;20.95;14.68;;;;;;;5.61;74.06;102170.75;3579251;40;20066;-64
2022/04/27 03:51:09;;;;;;;17.95;14.52;;;;;;;5.67;73.77;102181.31;3577815;40;20060;-64
2022/04/27 03:53:34;;;;;;;22.67;15.65;;;;;;;5.75;74.46;102194.50;3584450;40;20363;-63
2022/04/27 03:56:00;;;;;;;18.70;14.38;;;;;;;5.78;74.29;102211.34;3580085;40;20063;-62
2022/04/27 03:58:26;;;;;;;22.92;14.70;;;;;;;5.78;74.22;102210.47;3578364;40;20102;-65
2022/04/27 04:00:51;;;;;;;21.90;14.27;;;;;;;5.73;73.70;102209.66;3579728;40;20061;-64
2022/04/27 04:03:17;;;;;;;24.67;15.77;;;;;;;5.71;73.84;102209.69;3575214;40;20383;-65
2022/04/27 04:05:43;;;;;;;22.05;14.73;;;;;;;5.61;73.90;102200.09;3574990;40;20506;-66
2022/04/27 04:08:09;;;;;;;18.42;15.13;;;;;;;5.70;73.85;102209.72;3583595;40;20122;-65
2022/04/27 04:13:02;;;;;;;20.52;14.65;;;;;;;5.69;73.49;102232.84;3583510;39;20165;-61
2022/04/27 04:15:28;;;;;;;23.23;14.85;;;;;;;5.39;74.13;102186.28;3594120;39;20469;-62
2022/04/27 04:17:54;;;;;;;18.10;14.63;;;;;;;5.40;74.30;102192.50;3587704;39;20062;-62
2022/04/27 04:20:20;;;;;;;20.63;15.27;;;;;;;5.38;74.28;102191.66;3583344;39;20056;-63
2022/04/27 04:22:47;;;;;;;19.77;13.90;;;;;;;5.41;73.90;102189.81;3592202;39;20083;-63
2022/04/27 04:30:45;;;;;;;18.52;15.07;;;;;;;5.56;73.81;102237.53;3595275;39;20105;-63
2022/04/27 04:33:11;;;;;;;21.75;15.23;;;;;;;5.57;74.14;102239.28;3584022;39;20067;-63
2022/04/27 04:35:37;;;;;;;21.13;14.93;;;;;;;5.55;73.65;102240.22;3582068;39;20129;-64
2022/04/27 04:38:04;;;;;;;20.50;15.55;;;;;;;5.47;74.40;102231.50;3591643;39;20044;-65
2022/04/27 04:40:31;;;;;;;22.90;15.10;;;;;;;5.54;74.59;102249.13;3591184;39;20058;-65
2022/04/27 04:42:57;;;;;;;25.52;15.63;;;;;;;5.55;74.62;102256.22;3596121;39;20054;-64
2022/04/27 04:45:25;;;;;;;19.02;14.82;;;;;;;5.56;74.34;102252.66;3584814;39;20052;-62
2022/04/27 04:47:51;;;;;;;22.45;15.00;;;;;;;5.49;74.01;102251.03;3593761;39;20051;-63
2022/04/27 04:50:17;;;;;;;22.30;15.75;;;;;;;5.50;74.55;102248.31;3571390;39;20158;-63
2022/04/27 04:52:43;;;;;;;18.85;14.88;;;;;;;5.55;74.49;102266.88;3591042;39;20055;-62
2022/04/27 04:55:09;;;;;;;18.70;15.38;;;;;;;5.34;74.40;102229.03;3589043;39;20532;-63
2022/04/27 04:57:35;;;;;;;22.48;15.48;;;;;;;5.51;74.74;102259.84;3592723;39;20054;-63
2022/04/27 05:00:03;;;;;;;19.70;15.27;;;;;;;5.57;74.66;102265.09;3589119;39;20119;-63
2022/04/27 05:02:32;;;;;;;21.08;15.60;;;;;;;5.58;74.75;102266.84;3590557;39;20067;-62
2022/04/27 05:04:58;;;;;;;20.77;16.23;;;;;;;5.65;74.66;102268.50;3581215;39;20100;-63
2022/04/27 05:07:24;;;;;;;19.77;15.27;;;;;;;5.71;74.16;102268.41;3581667;39;20223;-63
2022/04/27 05:09:50;;;;;;;22.15;15.52;;;;;;;5.80;74.39;102276.22;3594149;39;20052;-63
2022/04/27 05:12:16;;;;;;;19.50;15.35;;;;;;;5.91;73.42;102280.47;3591353;39;20068;-63
2022/04/27 05:14:41;;;;;;;22.52;15.38;;;;;;;5.99;73.12;102276.78;3589824;39;20077;-63
2022/04/27 05:17:07;;;;;;;21.42;15.40;;;;;;;6.11;73.02;102272.97;3595714;39;20070;-63
2022/04/27 05:19:33;;;;;;;19.83;15.10;;;;;;;6.28;72.74;102276.22;3582201;39;20052;-63
2022/04/27 05:21:58;;;;;;;23.30;14.98;;;;;;;6.44;71.87;102276.75;3591697;39;20309;-65
2022/04/27 05:24:24;;;;;;;18.60;14.63;;;;;;;6.61;72.06;102283.53;3582836;39;20176;-63
2022/04/27 05:26:49;;;;;;;18.27;14.95;;;;;;;6.68;72.25;102280.66;3594696;39;20050;-63
2022/04/27 05:31:59;;;;;;;20.85;15.05;;;;;;;6.67;73.07;102297.63;3582438;39;20047;-62
2022/04/27 05:34:33;;;;;;;16.77;13.52;;;;;;;6.70;73.72;102300.25;3591822;39;20051;-62
2022/04/27 05:36:59;;;;;;;23.65;14.07;;;;;;;6.55;72.92;102260.50;3582037;39;20128;-63
2022/04/27 05:39:25;;;;;;;20.98;14.52;;;;;;;6.73;73.39;102291.28;3591282;39;20060;-63
2022/04/27 05:41:52;;;;;;;18.48;13.77;;;;;;;6.83;72.81;102307.97;3597577;39;20337;-62
2022/04/27 05:44:21;;;;;;;18.25;13.38;;;;;;;6.88;72.98;102312.31;3574581;39;20051;-62
2022/04/27 05:46:47;;;;;;;20.67;13.68;;;;;;;6.94;72.87;102308.59;3588951;39;20084;-63
2022/04/27 05:49:13;;;;;;;19.98;14.15;;;;;;;6.97;72.28;102313.88;3591372;39;20095;-64
2022/04/27 05:51:39;;;;;;;18.05;14.50;;;;;;;6.98;72.24;102304.97;3583058;39;20059;-63
2022/04/27 05:54:05;;;;;;;18.15;14.85;;;;;;;7.04;72.29;102310.19;3590491;39;20085;-64
2022/04/27 05:56:30;;;;;;;17.75;13.13;;;;;;;7.09;72.62;102310.06;3592221;39;20679;-63
2022/04/27 05:58:56;;;;;;;17.58;13.00;;;;;;;7.14;72.07;102316.19;3594105;39;20368;-64
2022/04/27 06:01:23;;;;;;;18.50;13.57;;;;;;;7.19;72.22;102319.59;3583211;39;20059;-64
2022/04/27 06:03:49;;;;;;;18.50;13.88;;;;;;;7.27;72.25;102323.00;3587821;39;20067;-63
2022/04/27 06:06:15;;;;;;;18.83;12.75;;;;;;;7.34;71.36;102318.38;3588441;39;20051;-64
2022/04/27 06:08:41;;;;;;;17.35;12.35;;;;;;;7.36;71.41;102311.19;3581776;39;20059;-63
2022/04/27 06:11:07;;;;;;;18.67;11.98;;;;;;;7.44;70.71;102327.94;3589027;39;20056;-64
2022/04/27 06:13:33;;;;;;;15.48;12.10;;;;;;;7.52;70.51;102322.41;3591886;39;20087;-63
2022/04/27 06:15:58;;;;;;;15.90;12.02;;;;;;;7.62;69.95;102331.94;3593342;39;20051;-63
2022/04/27 06:18:24;;;;;;;16.48;11.45;;;;;;;7.71;69.24;102330.81;3588356;39;20059;-65
2022/04/27 06:20:52;;;;;;;19.08;10.45;;;;;;;7.75;69.01;102338.75;3594444;39;20067;-65
2022/04/27 06:23:18;;;;;;;14.93;11.38;;;;;;;7.54;68.72;102285.75;3573628;39;20051;-63
2022/04/27 06:25:47;;;;;;;16.85;10.73;;;;;;;7.88;68.24;102326.78;3592927;39;20063;-63
2022/04/27 06:28:13;;;;;;;15.63;10.35;;;;;;;8.01;67.73;102335.38;3591060;39;20378;-63
2022/04/27 06:30:40;;;;;;;16.17;10.77;;;;;;;8.13;67.93;102337.72;3591826;39;20044;-63
2022/04/27 06:33:05;;;;;;;14.85;10.98;;;;;;;8.30;67.35;102334.56;3588448;39;20343;-64
2022/04/27 06:35:32;;;;;;;18.88;10.95;;;;;;;8.50;66.69;102342.09;3591408;39;20047;-64
2022/04/27 06:37:57;;;;;;;14.48;10.88;;;;;;;8.79;66.48;102345.72;3591920;39;20083;-65
2022/04/27 06:40:24;;;;;;;14.70;10.60;;;;;;;9.06;65.46;102342.16;3574573;39;20109;-64
2022/04/27 06:42:51;;;;;;;17.45;10.30;;;;;;;9.44;65.32;102347.25;3590952;39;20052;-64
2022/04/27 06:45:17;;;;;;;15.18;10.10;;;;;;;9.72;63.24;102341.84;3580838;39;20040;-65
2022/04/27 06:47:43;;;;;;;13.25;9.35;;;;;;;10.02;63.61;102349.75;3593089;39;20047;-63
2022/04/27 06:50:12;;;;;;;10.63;9.32;;;;;;;9.72;62.50;102242.47;3580731;39;20063;-64
2022/04/27 06:52:43;;;;;;;14.38;10.13;;;;;;;10.60;61.23;102355.75;3590897;39;20052;-64
2022/04/27 06:55:10;;;;;;;13.50;9.63;;;;;;;10.87;61.29;102354.69;3579033;39;20075;-64
2022/04/27 06:57:36;;;;;;;10.15;8.70;;;;;;;11.08;59.01;102360.19;3592583;39;20305;-67
2022/04/27 07:00:04;;;;;;;11.18;8.25;;;;;;;11.23;58.88;102353.34;3583603;39;20051;-64
2022/04/27 07:02:31;;;;;;;12.52;9.60;;;;;;;11.46;59.06;102363.16;3590533;39;20060;-64
2022/04/27 07:05:01;;;;;;;14.07;8.63;;;;;;;11.47;57.58;102349.63;3586532;39;20132;-65
2022/04/27 07:07:27;;;;;;;9.70;8.45;;;;;;;11.75;57.60;102361.94;3578426;39;20172;-65
2022/04/27 07:09:55;;;;;;;12.75;8.65;;;;;;;11.95;56.27;102366.50;3580445;39;20405;-65
2022/04/27 07:12:20;;;;;;;12.77;9.13;;;;;;;11.98;56.48;102361.00;3580130;39;20062;-65
2022/04/27 07:14:48;;;;;;;11.75;8.40;;;;;;;12.16;56.11;102368.28;3594225;39;20085;-65
2022/04/27 07:17:15;;;;;;;14.20;8.73;;;;;;;12.32;55.14;102363.09;3588327;39;20052;-64
2022/04/27 07:19:41;;;;;;;11.85;8.80;;;;;;;12.53;55.50;102369.34;3585428;39;20087;-64
2022/04/27 07:22:06;;;;;;;11.95;7.95;;;;;;;12.72;54.69;102372.97;3583732;39;20087;-65
2022/04/27 07:24:33;;;;;;;11.73;8.18;;;;;;;12.66;52.92;102340.88;3582732;39;20496;-66
2022/04/27 07:26:59;;;;;;;12.82;8.07;;;;;;;12.89;53.62;102379.41;3589319;39;20055;-66
2022/04/27 07:29:25;;;;;;;8.90;7.25;;;;;;;13.04;53.07;102377.81;3588888;39;20688;-65
2022/04/27 07:31:51;;;;;;;10.73;7.40;;;;;;;13.18;52.08;102376.19;3594789;39;20055;-64
2022/04/27 07:34:17;;;;;;;10.75;7.10;;;;;;;13.40;51.05;102383.28;3591676;39;20040;-65
2022/04/27 07:36:43;;;;;;;9.93;6.72;;;;;;;13.66;50.38;102382.88;3591091;39;20047;-64
2022/04/27 07:39:09;;;;;;;11.35;6.80;;;;;;;13.85;49.16;102384.66;3590234;39;20074;-65
2022/04/27 07:41:35;;;;;;;7.85;6.35;;;;;;;13.97;47.88;102381.31;3580451;39;20044;-65
2022/04/27 07:44:01;;;;;;;11.85;7.35;;;;;;;14.07;47.57;102387.13;3588040;39;20043;-65
2022/04/27 07:46:27;;;;;;;9.75;6.18;;;;;;;14.12;46.18;102388.66;3591196;39;20062;-65
2022/04/27 07:48:52;;;;;;;9.25;6.63;;;;;;;14.20;46.15;102392.78;3596879;39;20055;-64
2022/04/27 07:51:18;;;;;;;6.82;5.30;;;;;;;14.26;45.11;102379.81;3592055;39;20054;-65
2022/04/27 07:53:44;;;;;;;7.60;4.95;;;;;;;14.47;45.29;102385.91;3593744;39;20051;-65
2022/04/27 07:56:11;;;;;;;7.70;4.95;;;;;;;14.41;43.92;102356.47;3578516;39;20075;-65
2022/04/27 07:58:36;;;;;;;8.02;4.38;;;;;;;14.58;42.98;102388.94;3590763;39;20413;-64
2022/04/27 08:01:03;;;;;;;5.65;4.30;;;;;;;14.70;43.12;102386.53;3590606;39;20051;-65
2022/04/27 08:03:29;;;;;;;8.50;4.43;;;;;;;14.86;43.78;102401.00;3590526;39;20097;-64
2022/04/27 08:05:55;;;;;;;8.95;4.50;;;;;;;14.97;41.77;102387.75;3586552;39;20104;-64
2022/04/27 08:08:21;;;;;;;9.65;4.78;;;;;;;15.03;41.84;102383.81;3588968;39;20055;-64
2022/04/27 08:10:47;;;;;;;9.52;5.00;;;;;;;15.17;42.20;102396.59;3596718;39;20051;-64
2022/04/27 08:13:15;;;;;;;5.15;4.32;;;;;;;15.15;41.34;102399.38;3579486;39;20058;-66
2022/04/27 08:15:40;;;;;;;9.18;4.97;;;;;;;15.29;40.47;102396.78;3587210;39;20050;-65
2022/04/27 08:18:07;;;;;;;5.13;4.30;;;;;;;15.37;41.13;102393.63;3593184;39;20340;-65
2022/04/27 08:23:32;;;;;;;5.82;4.10;;;;;;;15.87;39.46;102403.41;3593257;39;20129;-64
2022/04/27 08:26:02;;;;;;;6.03;4.28;;;;;;;16.14;39.21;102400.00;3593392;39;20045;-64
2022/04/27 08:28:28;;;;;;;4.95;3.60;;;;;;;16.28;39.31;102408.19;3585696;39;20070;-64
2022/04/27 08:30:55;;;;;;;6.80;4.15;;;;;;;16.29;38.15;102409.94;3590524;39;20058;-64
2022/04/27 08:33:22;;;;;;;4.43;4.00;;;;;;;16.31;39.85;102399.00;3582179;39;20047;-65
2022/04/27 08:35:49;;;;;;;6.43;4.25;;;;;;;16.32;38.06;102393.47;3596335;39;20120;-64
2022/04/27 08:38:15;;;;;;;4.50;3.78;;;;;;;16.57;39.40;102405.53;3591820;39;20159;-65
2022/04/27 08:40:44;;;;;;;5.28;3.55;;;;;;;16.70;35.78;102418.25;3596009;39;20048;-66
2022/04/27 08:43:12;;;;;;;7.45;3.42;;;;;;;16.78;36.19;102398.81;3571716;39;20555;-64
2022/04/27 08:45:43;;;;;;;7.55;3.92;;;;;;;16.86;36.66;102393.75;3584583;39;20048;-62
2022/04/27 08:48:17;;;;;;;5.68;3.88;;;;;;;17.03;36.12;102416.25;3589355;39;20295;-64
2022/04/27 08:50:45;;;;;;;7.57;4.03;;;;;;;17.01;37.03;102412.78;3595169;39;20383;-64
2022/04/27 08:53:11;;;;;;;8.55;3.65;;;;;;;17.06;35.25;102410.63;3591498;39;20428;-64
2022/04/27 08:55:40;;;;;;;5.75;3.63;;;;;;;17.25;35.46;102422.03;3592230;39;20419;-63
2022/04/27 08:58:12;;;;;;;5.03;3.58;;;;;;;17.30;36.05;102428.06;3587644;39;20096;-63
2022/04/27 09:00:39;;;;;;;5.30;3.78;;;;;;;17.42;36.59;102430.97;3591157;39;20055;-63
2022/04/27 09:03:22;;;;;;;7.85;4.03;;;;;;;17.72;33.85;102423.50;3592756;39;20061;-63
2022/04/27 09:06:00;;;;;;;4.47;3.88;;;;;;;17.52;34.93;102419.38;3589057;39;20050;-63
2022/04/27 09:08:49;;;;;;;5.72;3.85;;;;;;;17.71;34.44;102418.19;3592170;39;20742;-63
2022/04/27 09:11:27;;;;;;;7.10;3.97;;;;;;;17.91;34.08;102416.88;3590170;39;20059;-65
2022/04/27 09:13:56;;;;;;;6.93;4.00;;;;;;;18.05;35.08;102423.13;3592559;39;20347;-63
2022/04/27 09:16:26;;;;;;;5.30;3.67;;;;;;;18.12;32.95;102418.13;3581814;39;20060;-63
2022/04/27 09:21:59;;;;;;;6.75;3.90;;;;;;;18.27;34.89;102422.53;3586487;39;20066;-65
2022/04/27 09:24:28;;;;;;;7.75;3.97;;;;;;;18.22;32.78;102415.66;3593825;39;20095;-63
2022/04/27 09:27:11;;;;;;;5.78;4.38;;;;;;;18.41;32.17;102426.13;3594894;39;20046;-63
2022/04/27 09:29:37;;;;;;;6.43;4.60;;;;;;;18.34;32.94;102417.53;3583956;39;20051;-63
2022/04/27 09:32:04;;;;;;;6.47;4.38;;;;;;;18.39;34.22;102415.34;3589440;39;20128;-64
2022/04/27 09:34:46;;;;;;;9.40;4.38;;;;;;;18.47;32.06;102423.84;3592792;39;20048;-62
2022/04/27 09:37:24;;;;;;;5.68;4.15;;;;;;;18.70;31.66;102418.63;3588673;39;20115;-63
2022/04/27 09:40:11;;;;;;;5.28;4.32;;;;;;;18.53;33.31;102362.66;3595529;39;20050;-63
2022/04/27 09:42:44;;;;;;;5.85;4.32;;;;;;;19.03;32.75;102420.84;3587254;39;20059;-63
2022/04/27 09:45:19;;;;;;;4.75;4.15;;;;;;;19.04;31.78;102419.88;3570344;39;20185;-64
2022/04/27 09:48:04;;;;;;;6.55;4.35;;;;;;;19.08;31.54;102425.97;3594883;39;20047;-63
2022/04/27 09:50:55;;;;;;;4.82;4.40;;;;;;;19.17;32.19;102417.97;3592970;39;20066;-63
2022/04/27 09:53:21;;;;;;;8.55;4.78;;;;;;;19.00;32.28;102402.88;3585945;39;20128;-64
2022/04/27 09:55:54;;;;;;;6.22;4.88;;;;;;;19.07;33.23;102406.00;3592587;39;20051;-63
2022/04/27 09:58:24;;;;;;;10.40;5.47;;;;;;;19.12;32.23;102422.88;3585320;39;20095;-64
2022/04/27 10:00:56;;;;;;;6.82;4.70;;;;;;;19.37;32.89;102430.16;3585811;39;20798;-61
2022/04/27 10:03:25;;;;;;;7.88;5.40;;;;;;;19.22;31.53;102426.72;3591783;39;20052;-62
2022/04/27 10:05:51;;;;;;;7.60;5.45;;;;;;;19.28;32.25;102424.50;3596852;39;20090;-62
2022/04/27 10:08:19;;;;;;;7.55;5.35;;;;;;;19.41;31.11;102430.78;3580772;39;20801;-62
2022/04/27 10:10:47;;;;;;;9.77;5.18;;;;;;;19.25;30.90;102426.50;3594594;39;20389;-63
2022/04/27 10:13:15;;;;;;;7.10;5.43;;;;;;;19.24;32.83;102435.63;3625290;22;20062;-63
2022/04/27 10:15:43;;;;;;;6.88;5.43;;;;;;;19.02;32.97;102428.13;3587717;39;20087;-64
2022/04/27 10:18:20;;;;;;;8.13;6.13;;;;;;;18.94;33.83;102405.16;3589931;39;20063;-64
2022/04/27 10:20:49;;;;;;;7.78;6.35;;;;;;;19.10;32.29;102419.41;3593796;39;20364;-64
2022/04/27 10:23:31;;;;;;;8.25;5.60;;;;;;;19.16;31.85;102424.44;3591913;39;20140;-63
2022/04/27 10:26:14;;;;;;;7.07;5.35;;;;;;;19.19;32.78;102418.75;3592103;39;20341;-63
2022/04/27 10:28:49;;;;;;;6.60;5.07;;;;;;;18.75;32.96;102330.19;3594052;39;20302;-64
2022/04/27 10:31:55;;;;;;;5.75;5.15;;;;;;;19.21;33.28;102403.13;3584818;39;20058;-64
2022/04/27 10:34:23;;;;;;;8.95;5.78;;;;;;;19.18;32.86;102414.25;3589275;39;20170;-63
2022/04/27 10:37:00;;;;;;;11.35;5.80;;;;;;;19.25;32.08;102410.13;3595599;39;20066;-63
2022/04/27 10:39:31;;;;;;;8.68;5.60;;;;;;;19.33;32.25;102408.69;3594573;39;20056;-64
2022/04/27 10:42:03;;;;;;;8.93;5.80;;;;;;;19.48;31.35;102410.28;3591031;39;20056;-62
2022/04/27 10:44:47;;;;;;;8.68;5.65;;;;;;;19.69;32.82;102394.19;3591861;39;20054;-63
2022/04/27 10:47:19;;;;;;;6.68;6.05;;;;;;;19.93;30.61;102405.97;3582588;39;20048;-63
2022/04/27 10:49:50;;;;;;;10.60;5.63;;;;;;;20.19;30.62;102394.91;3592647;39;20583;-63
2022/04/27 10:52:22;;;;;;;9.38;6.25;;;;;;;20.38;30.74;102400.66;3594322;39;20052;-63
2022/04/27 10:54:48;;;;;;;9.60;6.75;;;;;;;20.26;29.89;102395.28;3594920;39;20047;-63
2022/04/27 10:57:16;;;;;;;7.78;6.07;;;;;;;20.32;31.06;102400.25;3594109;39;20065;-63
2022/04/27 11:00:02;;;;;;;7.95;5.95;;;;;;;20.33;30.93;102396.53;3595545;39;20047;-64
2022/04/27 11:02:33;;;;;;;6.95;6.20;;;;;;;20.48;29.50;102399.94;3583559;39;20052;-64
2022/04/27 11:04:59;;;;;;;8.35;5.70;;;;;;;20.47;30.51;102390.88;3591345;39;20051;-64
2022/04/27 11:07:45;;;;;;;7.15;6.07;;;;;;;20.54;29.87;102392.16;3590255;39;20047;-64
2022/04/27 11:10:14;;;;;;;9.82;6.40;;;;;;;20.76;29.07;102404.97;3591250;39;20071;-63
2022/04/27 11:12:44;;;;;;;10.15;6.70;;;;;;;20.90;29.32;102398.44;3593716;39;20051;-64
2022/04/27 11:15:11;;;;;;;6.88;5.45;;;;;;;20.75;29.33;102337.66;3592203;39;20048;-63
2022/04/27 11:17:40;;;;;;;6.70;5.60;;;;;;;21.08;29.20;102380.50;3585252;39;20060;-64
2022/04/27 11:20:41;;;;;;;8.07;6.05;;;;;;;21.06;30.00;102395.31;3590253;39;20055;-63
2022/04/27 11:23:20;;;;;;;6.18;5.57;;;;;;;20.55;29.17;102395.75;3590671;39;20066;-62
2022/04/27 11:25:51;;;;;;;7.60;5.53;;;;;;;20.12;29.94;102390.91;3592581;39;20054;-63
2022/04/27 11:28:18;;;;;;;10.70;6.30;;;;;;;19.61;30.74;102394.72;3590409;39;20665;-63
2022/04/27 11:30:45;;;;;;;9.68;6.35;;;;;;;19.47;31.85;102387.59;3593200;39;20061;-63
2022/04/27 11:33:11;;;;;;;7.20;5.75;;;;;;;19.96;33.50;102393.94;3580357;39;20271;-62
2022/04/27 11:35:47;;;;;;;8.73;4.97;;;;;;;20.47;31.28;102392.75;3591556;39;20055;-64
2022/04/27 11:38:21;;;;;;;9.32;6.10;;;;;;;20.88;30.31;102386.72;3590385;39;20140;-63
2022/04/27 11:40:51;;;;;;;8.98;6.55;;;;;;;21.14;29.19;102391.94;3593830;39;20063;-63
2022/04/27 11:43:32;;;;;;;10.18;5.30;;;;;;;21.41;28.47;102389.72;3593062;39;20123;-64
2022/04/27 11:45:58;;;;;;;8.88;5.90;;;;;;;21.63;28.15;102388.78;3592763;39;20079;-64
2022/04/27 11:48:29;;;;;;;11.50;5.82;;;;;;;21.67;28.27;102389.41;3580926;39;20060;-63
2022/04/27 11:50:59;;;;;;;7.47;5.93;;;;;;;21.64;27.97;102384.19;3591098;39;20059;-63